Time;durP1;ratioP1;P1;durP2;ratioP2;P2;SDS_P1;SDS_P2;PMS_P1;PMS_P2;Temp;Humidity;BMP_temperature;BMP_pressure;BME280_temperature;BME280_humidity;BME280_pressure;Samples;Min_cycle;Max_cycle;Signal;HPM_P1;HPM_P2
2021/01/27 02:04:09;;;;;;;9.52;4.70;;;0.60;73.90;;;;;;5072293;28;20233;-79
2021/01/27 02:06:50;;;;;;;10.60;5.28;;;0.60;74.20;;;;;;5070222;28;20272;-78
2021/01/27 02:09:17;;;;;;;5.15;4.43;;;0.60;75.20;;;;;;5072849;28;20191;-79
2021/01/27 03:27:56;;;;;;;6.15;4.50;;;1.20;69.80;;;;;;4989903;28;20177;-79
2021/01/27 03:30:23;;;;;;;5.88;4.40;;;1.20;69.80;;;;;;4986099;28;20220;-80
2021/01/27 03:32:55;;;;;;;5.13;4.15;;;1.30;69.90;;;;;;4986014;28;20236;-80
2021/01/27 03:35:30;;;;;;;5.85;4.35;;;1.30;69.50;;;;;;4986575;28;20539;-79
2021/01/27 03:38:01;;;;;;;6.25;4.38;;;1.40;69.00;;;;;;4987766;28;20304;-80
2021/01/27 03:40:28;;;;;;;6.32;4.10;;;1.30;68.60;;;;;;4987345;28;20273;-81
2021/01/27 03:43:08;;;;;;;5.38;3.90;;;1.30;68.90;;;;;;5027807;22;20221;-79
2021/01/27 03:45:40;;;;;;;6.05;4.50;;;1.40;69.40;;;;;;5033015;28;20234;-77
2021/01/27 03:48:12;;;;;;;5.18;4.10;;;1.40;69.00;;;;;;5033104;28;20199;-76
2021/01/27 03:50:41;;;;;;;5.82;4.40;;;1.40;68.60;;;;;;5033449;28;20203;-76
2021/01/27 03:53:12;;;;;;;5.47;3.70;;;1.30;68.30;;;;;;5030210;28;20278;-76
2021/01/27 03:55:45;;;;;;;5.47;4.15;;;1.40;68.70;;;;;;5013684;28;20191;-78
2021/01/27 03:58:17;;;;;;;5.57;3.65;;;1.40;68.40;;;;;;5014198;28;20257;-76
2021/01/27 04:00:46;;;;;;;5.20;3.78;;;1.40;68.60;;;;;;5014513;28;20192;-75
2021/01/27 04:03:19;;;;;;;5.25;3.78;;;1.40;68.60;;;;;;5013414;28;20238;-76
2021/01/27 04:05:46;;;;;;;6.00;3.60;;;1.40;68.50;;;;;;5014075;28;20206;-77
2021/01/27 04:08:12;;;;;;;4.50;4.10;;;1.40;68.70;;;;;;5020782;28;20204;-77
2021/01/27 04:10:39;;;;;;;7.90;4.10;;;1.40;68.60;;;;;;5030389;28;20271;-78
2021/01/27 04:13:05;;;;;;;5.00;4.00;;;1.50;68.20;;;;;;5017596;28;20234;-77
2021/01/27 04:15:33;;;;;;;4.80;4.20;;;1.50;67.90;;;;;;5014283;28;20582;-76
2021/01/27 04:18:00;;;;;;;5.43;4.05;;;1.50;67.60;;;;;;5013679;28;20208;-77
2021/01/27 04:20:28;;;;;;;5.75;4.40;;;1.50;67.60;;;;;;5014353;28;20651;-77
2021/01/27 04:22:55;;;;;;;5.40;4.05;;;1.50;67.90;;;;;;5014814;28;20733;-75
2021/01/27 04:25:21;;;;;;;5.07;3.55;;;1.60;67.80;;;;;;5015007;28;20306;-76
2021/01/27 04:27:48;;;;;;;4.88;3.58;;;1.60;66.90;;;;;;5018126;28;20213;-80
2021/01/27 04:30:18;;;;;;;4.75;4.25;;;1.60;66.70;;;;;;5032641;28;20208;-78
2021/01/27 04:32:45;;;;;;;5.13;3.88;;;1.60;65.80;;;;;;5021592;28;20520;-77
2021/01/27 04:35:13;;;;;;;5.72;3.88;;;1.60;65.60;;;;;;5015257;28;20215;-79
2021/01/27 04:37:40;;;;;;;4.93;3.60;;;1.60;65.10;;;;;;5015735;28;20207;-76
2021/01/27 04:40:08;;;;;;;6.72;3.80;;;1.60;65.30;;;;;;5024092;28;20222;-81
2021/01/27 04:42:35;;;;;;;4.80;3.78;;;1.50;65.70;;;;;;5027227;28;20622;-77
2021/01/27 04:45:01;;;;;;;4.15;3.20;;;1.50;65.70;;;;;;5025862;28;20231;-81
2021/01/27 04:47:35;;;;;;;7.50;4.00;;;1.50;65.60;;;;;;5031112;28;20563;-78
2021/01/27 04:50:09;;;;;;;4.90;3.60;;;1.60;65.60;;;;;;5019380;28;20192;-76
2021/01/27 04:52:59;;;;;;;5.43;4.00;;;1.60;65.40;;;;;;5018006;28;20231;-77
2021/01/27 04:55:55;;;;;;;3.75;3.17;;;1.60;65.20;;;;;;5019144;28;20220;-76
2021/01/27 04:58:33;;;;;;;4.70;3.95;;;1.60;65.80;;;;;;5019731;28;20219;-76
2021/01/27 05:01:16;;;;;;;5.20;3.85;;;1.70;65.20;;;;;;5020594;28;20215;-76
2021/01/27 05:04:11;;;;;;;4.15;3.72;;;1.70;65.20;;;;;;5020260;28;20231;-78
2021/01/27 05:06:42;;;;;;;5.90;3.47;;;1.80;64.90;;;;;;5016482;28;20250;-77
2021/01/27 05:09:14;;;;;;;5.82;3.65;;;1.80;64.70;;;;;;5020691;28;20291;-76
2021/01/27 05:11:42;;;;;;;4.35;3.55;;;1.80;64.60;;;;;;5020129;28;20279;-77
2021/01/27 05:14:09;;;;;;;5.53;3.80;;;1.80;64.40;;;;;;5021320;28;20250;-80
2021/01/27 05:16:36;;;;;;;5.60;3.88;;;1.70;64.10;;;;;;5021354;28;20216;-77
2021/01/27 05:19:07;;;;;;;5.85;3.50;;;1.60;64.40;;;;;;5019836;28;20752;-76
2021/01/27 05:21:38;;;;;;;6.40;3.85;;;1.70;64.80;;;;;;5019386;28;20207;-77
2021/01/27 05:24:07;;;;;;;7.05;3.50;;;1.80;64.60;;;;;;5020308;28;20247;-77
2021/01/27 05:26:37;;;;;;;6.85;3.80;;;1.80;64.40;;;;;;5023929;28;20211;-80
2021/01/27 05:29:07;;;;;;;7.00;3.78;;;1.80;64.40;;;;;;5025266;28;20200;-77
2021/01/27 05:32:09;;;;;;;6.05;3.50;;;1.80;64.40;;;;;;5024635;28;20215;-78
2021/01/27 05:34:37;;;;;;;4.10;3.35;;;1.80;64.70;;;;;;5024805;28;20228;-79
2021/01/27 05:37:08;;;;;;;6.43;4.25;;;1.80;65.20;;;;;;5032118;28;20200;-79
2021/01/27 05:39:36;;;;;;;6.40;4.90;;;1.90;65.60;;;;;;5039085;28;20239;-81
2021/01/27 05:42:21;;;;;;;6.13;4.72;;;1.80;66.00;;;;;;5038165;28;20188;-81
2021/01/27 05:44:50;;;;;;;9.05;5.47;;;1.90;66.00;;;;;;5038589;28;20223;-81
2021/01/27 05:47:21;;;;;;;8.55;4.55;;;1.90;66.00;;;;;;5037320;28;20228;-81
2021/01/27 05:49:47;;;;;;;8.23;5.47;;;1.90;66.00;;;;;;5037017;28;20227;-79
2021/01/27 05:52:16;;;;;;;6.53;5.43;;;2.00;66.70;;;;;;5036275;28;20218;-79
2021/01/27 05:54:44;;;;;;;6.88;5.15;;;1.90;66.60;;;;;;5035493;28;20231;-78
2021/01/27 05:57:13;;;;;;;9.43;5.80;;;1.90;66.60;;;;;;5035705;28;20198;-81
2021/01/27 05:59:40;;;;;;;6.63;4.97;;;2.00;66.80;;;;;;5034361;28;20223;-80
2021/01/27 06:02:07;;;;;;;9.65;4.90;;;2.00;66.20;;;;;;5035130;28;20292;-79
2021/01/27 06:04:35;;;;;;;9.50;4.80;;;2.00;66.60;;;;;;5035787;28;20247;-78
2021/01/27 06:07:04;;;;;;;5.38;4.38;;;2.00;66.90;;;;;;5035225;28;20215;-77
2021/01/27 06:09:34;;;;;;;8.30;4.88;;;2.00;66.70;;;;;;5035937;28;20204;-77
2021/01/27 06:12:03;;;;;;;8.35;4.40;;;2.00;66.50;;;;;;5035432;28;20437;-78
2021/01/27 06:14:30;;;;;;;6.85;4.50;;;2.00;66.10;;;;;;5037286;28;20251;-78
2021/01/27 06:16:56;;;;;;;5.63;4.40;;;1.90;66.00;;;;;;5036039;28;20200;-76
2021/01/27 06:19:24;;;;;;;6.00;4.20;;;1.90;66.20;;;;;;5027519;28;20212;-78
2021/01/27 06:22:21;;;;;;;11.65;4.40;;;1.90;66.60;;;;;;5017745;28;20192;-78
2021/01/27 06:25:07;;;;;;;10.90;5.00;;;1.90;66.50;;;;;;5035732;28;20231;-78
2021/01/27 06:27:50;;;;;;;8.45;4.82;;;1.90;66.00;;;;;;5035317;28;20208;-76
2021/01/27 06:30:52;;;;;;;7.57;5.15;;;1.90;66.00;;;;;;5032892;28;20272;-77
2021/01/27 06:34:01;;;;;;;5.88;4.95;;;1.90;66.00;;;;;;4945281;29;20237;-76
2021/01/27 06:36:55;;;;;;;6.72;4.60;;;1.90;66.90;;;;;;5000527;28;20212;-77
2021/01/27 06:39:45;;;;;;;10.25;5.15;;;1.90;67.10;;;;;;5024403;28;20319;-76
2021/01/27 06:42:23;;;;;;;8.38;6.20;;;1.80;67.50;;;;;;5037459;28;20223;-77
2021/01/27 06:45:04;;;;;;;7.43;5.25;;;1.80;67.80;;;;;;5037912;28;20236;-80
2021/01/27 06:48:07;;;;;;;8.57;5.55;;;1.90;67.70;;;;;;5037605;28;20207;-77
2021/01/27 06:50:59;;;;;;;9.52;5.95;;;1.90;67.30;;;;;;5035031;28;20210;-78
2021/01/27 06:54:07;;;;;;;12.15;5.75;;;1.90;67.20;;;;;;5036965;28;20220;-76
2021/01/27 06:57:12;;;;;;;9.88;6.28;;;1.90;67.40;;;;;;5035521;28;20188;-76
2021/01/27 07:00:07;;;;;;;13.20;6.55;;;1.90;67.80;;;;;;5011763;28;20320;-76
2021/01/27 07:03:13;;;;;;;10.45;6.50;;;1.90;67.80;;;;;;5009339;28;20184;-78
2021/01/27 07:06:04;;;;;;;8.32;6.00;;;2.00;67.50;;;;;;5034189;28;20219;-78
2021/01/27 07:09:01;;;;;;;11.48;5.55;;;2.00;67.70;;;;;;5030520;28;20235;-78
2021/01/27 07:11:36;;;;;;;7.63;5.13;;;2.10;67.20;;;;;;5056669;28;20195;-78
2021/01/27 07:14:32;;;;;;;10.30;6.18;;;2.10;67.20;;;;;;5043310;28;20226;-78
2021/01/27 07:17:19;;;;;;;6.93;5.70;;;2.10;67.20;;;;;;5037455;28;20211;-77
2021/01/27 07:20:06;;;;;;;8.15;5.15;;;2.10;67.70;;;;;;5034519;28;20223;-78
2021/01/27 07:22:40;;;;;;;7.85;5.63;;;2.10;68.00;;;;;;5038156;28;20192;-79
2021/01/27 07:25:11;;;;;;;7.10;5.00;;;2.10;67.90;;;;;;5037069;28;20227;-79
2021/01/27 07:27:46;;;;;;;6.38;5.03;;;2.00;68.30;;;;;;5024716;28;20216;-77
2021/01/27 07:30:18;;;;;;;8.27;5.07;;;2.10;69.00;;;;;;5015519;28;20218;-79
2021/01/27 07:32:50;;;;;;;6.20;4.82;;;2.10;69.40;;;;;;5019498;28;20548;-78
2021/01/27 07:35:22;;;;;;;6.95;5.43;;;1.90;69.60;;;;;;5016077;28;20667;-78
2021/01/27 07:37:54;;;;;;;10.20;5.53;;;2.00;70.50;;;;;;5015753;28;20192;-78
2021/01/27 07:40:26;;;;;;;9.65;5.55;;;1.90;70.40;;;;;;5018953;28;20238;-78
2021/01/27 07:42:56;;;;;;;11.13;5.10;;;2.10;70.50;;;;;;5024147;28;20212;-79
2021/01/27 07:45:27;;;;;;;9.35;5.30;;;2.10;69.30;;;;;;5019271;28;20211;-78
2021/01/27 07:48:10;;;;;;;12.38;5.43;;;2.10;69.10;;;;;;5018292;28;20258;-77
2021/01/27 07:50:39;;;;;;;7.68;5.35;;;2.10;69.00;;;;;;5017609;28;20218;-79
2021/01/27 07:53:18;;;;;;;6.40;4.50;;;2.00;69.60;;;;;;5022254;28;20275;-79
2021/01/27 07:55:56;;;;;;;6.60;5.13;;;2.10;69.30;;;;;;5019133;28;20211;-77
2021/01/27 07:58:29;;;;;;;7.10;5.50;;;2.10;69.30;;;;;;5018938;28;20227;-78
2021/01/27 08:00:58;;;;;;;6.57;5.22;;;2.20;69.70;;;;;;5021094;28;20267;-78
2021/01/27 08:03:34;;;;;;;6.13;4.45;;;2.20;69.00;;;;;;5028734;28;20289;-77
2021/01/27 08:06:06;;;;;;;7.53;5.65;;;2.20;69.40;;;;;;5022664;28;20242;-77
2021/01/27 08:08:44;;;;;;;10.40;5.70;;;2.20;68.90;;;;;;5032535;28;20219;-78
2021/01/27 08:11:14;;;;;;;6.28;5.15;;;2.20;68.80;;;;;;5032352;28;20187;-78
2021/01/27 08:13:42;;;;;;;6.53;5.28;;;2.30;69.00;;;;;;5027009;28;20227;-78
2021/01/27 08:16:31;;;;;;;7.18;5.22;;;2.20;69.10;;;;;;5017871;28;20208;-77
2021/01/27 08:19:17;;;;;;;5.85;4.18;;;2.20;69.60;;;;;;5018101;28;20219;-79
2021/01/27 08:21:56;;;;;;;7.60;4.68;;;2.20;68.70;;;;;;5016131;28;20211;-80
2021/01/27 08:24:52;;;;;;;6.85;4.25;;;2.20;68.50;;;;;;5016333;28;20215;-77
2021/01/27 08:27:27;;;;;;;7.07;4.63;;;2.10;68.70;;;;;;5016408;28;20234;-77
2021/01/27 08:30:20;;;;;;;6.95;4.45;;;2.10;69.60;;;;;;5020002;28;20230;-78
2021/01/27 08:32:47;;;;;;;5.40;4.03;;;2.00;70.50;;;;;;5011648;28;20302;-77
2021/01/27 08:35:47;;;;;;;5.05;4.57;;;1.90;72.40;;;;;;5000813;28;20201;-78
2021/01/27 08:38:22;;;;;;;7.70;4.65;;;1.80;74.50;;;;;;4998825;28;20240;-77
2021/01/27 08:40:50;;;;;;;5.45;4.00;;;1.80;76.30;;;;;;5002191;28;20219;-77
2021/01/27 08:43:17;;;;;;;7.72;4.30;;;1.80;77.60;;;;;;4997384;28;20267;-79
2021/01/27 08:45:46;;;;;;;9.60;4.60;;;1.80;78.70;;;;;;4998151;28;20604;-79
2021/01/27 08:48:33;;;;;;;7.53;4.95;;;1.80;79.40;;;;;;5017333;28;20621;-78
2021/01/27 08:51:00;;;;;;;7.40;4.88;;;1.70;80.70;;;;;;5014516;28;20684;-77
2021/01/27 08:53:48;;;;;;;7.18;5.20;;;1.60;82.60;;;;;;5016628;28;20319;-78
2021/01/27 08:56:15;;;;;;;11.43;5.50;;;1.60;84.40;;;;;;5014299;28;20208;-78
2021/01/27 08:58:45;;;;;;;9.65;5.43;;;1.60;85.60;;;;;;5014066;28;20250;-78
2021/01/27 09:01:52;;;;;;;13.95;5.55;;;1.50;86.60;;;;;;5015653;28;20226;-79
2021/01/27 09:04:34;;;;;;;6.97;5.40;;;1.40;88.20;;;;;;5016574;28;20255;-79
2021/01/27 09:07:08;;;;;;;9.07;5.75;;;1.50;90.00;;;;;;5026532;28;20172;-78
2021/01/27 09:09:39;;;;;;;7.68;5.63;;;1.50;90.50;;;;;;5035198;28;20219;-81
2021/01/27 09:12:08;;;;;;;13.52;6.65;;;1.40;91.30;;;;;;5031513;28;20203;-78
2021/01/27 09:14:36;;;;;;;10.18;6.30;;;1.50;92.00;;;;;;5034178;28;20235;-80
2021/01/27 09:17:05;;;;;;;10.00;6.63;;;1.50;92.00;;;;;;5035225;28;20196;-79
2021/01/27 09:19:35;;;;;;;8.88;7.00;;;1.50;92.10;;;;;;5033380;28;20235;-79
2021/01/27 09:22:19;;;;;;;6.82;5.93;;;1.60;92.70;;;;;;5025676;28;20258;-79
2021/01/27 09:24:48;;;;;;;10.70;7.80;;;1.50;92.80;;;;;;5003859;28;20295;-80
2021/01/27 09:27:21;;;;;;;13.68;7.57;;;1.60;93.40;;;;;;5003877;28;20224;-80
2021/01/27 09:29:55;;;;;;;12.75;7.65;;;1.60;93.40;;;;;;5003892;28;20263;-79
2021/01/27 09:32:21;;;;;;;9.07;7.22;;;1.60;93.70;;;;;;5003621;28;20230;-77
2021/01/27 09:34:49;;;;;;;10.88;7.43;;;1.50;93.80;;;;;;5008292;28;20251;-78
2021/01/27 09:37:20;;;;;;;11.65;9.90;;;1.60;94.20;;;;;;5026032;28;20262;-77
2021/01/27 09:39:52;;;;;;;12.93;9.38;;;1.60;94.10;;;;;;5038230;28;20219;-77
2021/01/27 09:42:27;;;;;;;11.40;9.20;;;1.60;93.90;;;;;;5037961;28;20275;-77
2021/01/27 09:44:59;;;;;;;10.77;7.30;;;1.60;94.30;;;;;;5029836;28;20262;-78
2021/01/27 09:47:27;;;;;;;12.30;7.88;;;1.70;94.50;;;;;;5026008;28;20219;-78
2021/01/27 09:49:57;;;;;;;11.38;7.18;;;1.80;94.80;;;;;;5031230;28;20235;-78
2021/01/27 09:52:28;;;;;;;15.10;9.07;;;1.80;94.30;;;;;;5037880;28;20188;-79
2021/01/27 09:55:05;;;;;;;14.10;7.88;;;1.90;94.60;;;;;;5034303;28;20279;-78
2021/01/27 09:57:32;;;;;;;11.00;8.13;;;1.90;94.30;;;;;;5036764;28;20264;-78
2021/01/27 09:59:59;;;;;;;17.10;8.40;;;2.00;94.10;;;;;;5029010;28;20228;-78
2021/01/27 10:02:28;;;;;;;8.45;7.28;;;2.10;93.80;;;;;;5027824;28;20278;-79
2021/01/27 10:04:54;;;;;;;11.10;6.85;;;2.20;93.90;;;;;;5020646;28;20244;-78
2021/01/27 10:07:24;;;;;;;10.95;7.03;;;2.30;93.70;;;;;;5019007;28;20254;-77
2021/01/27 10:09:56;;;;;;;12.10;8.77;;;2.40;93.20;;;;;;5016071;28;20207;-76
2021/01/27 10:12:25;;;;;;;10.32;7.55;;;2.60;92.70;;;;;;5015789;28;20271;-77
2021/01/27 10:15:09;;;;;;;8.90;6.47;;;2.60;92.50;;;;;;5017764;28;20259;-77
2021/01/27 10:17:36;;;;;;;10.32;6.57;;;2.60;91.90;;;;;;5024067;28;20211;-76
2021/01/27 10:20:22;;;;;;;9.40;6.45;;;2.50;91.10;;;;;;5018747;28;20331;-77
2021/01/27 10:22:55;;;;;;;11.00;8.20;;;2.40;90.70;;;;;;5018345;28;20204;-76
2021/01/27 10:25:37;;;;;;;9.90;6.18;;;2.20;90.30;;;;;;5022072;28;20222;-76
2021/01/27 10:28:21;;;;;;;13.75;6.10;;;2.20;91.60;;;;;;5018425;28;20241;-77
2021/01/27 10:30:54;;;;;;;14.95;10.68;;;2.40;91.70;;;;;;5017769;28;20549;-77
2021/01/27 10:33:41;;;;;;;20.35;11.93;;;2.40;91.40;;;;;;5015831;28;20310;-77
2021/01/27 10:36:35;;;;;;;10.00;8.30;;;2.50;91.50;;;;;;5020059;28;20185;-78
2021/01/27 10:39:16;;;;;;;8.25;5.50;;;2.40;91.40;;;;;;5021292;28;20291;-77
2021/01/27 10:41:43;;;;;;;7.85;5.63;;;2.60;91.00;;;;;;5022960;28;20222;-78
2021/01/27 10:44:26;;;;;;;12.80;9.70;;;2.60;90.60;;;;;;5027762;28;20263;-77
2021/01/27 10:46:55;;;;;;;8.88;5.95;;;2.60;90.20;;;;;;5029369;28;20219;-77
2021/01/27 10:49:21;;;;;;;9.90;5.47;;;2.40;90.00;;;;;;5028642;28;20200;-78
2021/01/27 10:51:49;;;;;;;8.43;4.82;;;2.40;90.40;;;;;;5023563;28;20211;-77
2021/01/27 10:54:20;;;;;;;7.35;5.25;;;2.10;90.80;;;;;;5017649;28;20224;-78
2021/01/27 10:56:51;;;;;;;6.15;5.25;;;2.20;91.90;;;;;;5020307;28;20521;-77
2021/01/27 10:59:18;;;;;;;7.05;4.82;;;2.40;92.40;;;;;;5021373;28;20222;-76
2021/01/27 11:01:45;;;;;;;6.60;4.07;;;2.60;92.50;;;;;;5030784;28;20215;-76
2021/01/27 11:04:12;;;;;;;5.20;4.03;;;2.60;92.00;;;;;;5028370;28;20224;-77
2021/01/27 11:06:39;;;;;;;4.20;3.20;;;2.70;92.00;;;;;;5026611;28;20207;-77
2021/01/27 11:09:06;;;;;;;4.70;3.42;;;2.80;91.60;;;;;;5019734;28;20219;-78
2021/01/27 11:11:32;;;;;;;4.22;3.30;;;2.80;91.10;;;;;;5023239;28;20219;-78
2021/01/27 11:13:59;;;;;;;5.60;3.80;;;2.90;90.90;;;;;;5019723;28;20318;-78
2021/01/27 11:16:25;;;;;;;5.88;3.40;;;3.10;90.40;;;;;;5020381;28;20208;-77
2021/01/27 11:18:53;;;;;;;6.95;3.90;;;3.00;87.90;;;;;;5018745;28;20255;-77
2021/01/27 11:21:19;;;;;;;9.43;3.45;;;2.90;87.80;;;;;;5016737;28;20259;-77
2021/01/27 11:23:46;;;;;;;4.18;3.38;;;3.00;88.00;;;;;;5021430;28;20219;-77
2021/01/27 11:26:18;;;;;;;7.07;4.10;;;2.80;87.80;;;;;;5032546;28;20243;-77
2021/01/27 11:28:46;;;;;;;6.10;3.95;;;3.00;87.90;;;;;;5032821;28;20243;-76
2021/01/27 11:31:13;;;;;;;7.95;4.20;;;3.10;88.10;;;;;;5034454;28;20207;-78
2021/01/27 11:33:40;;;;;;;7.65;4.65;;;3.20;86.10;;;;;;5028558;28;20277;-77
2021/01/27 11:36:08;;;;;;;8.77;3.55;;;3.40;84.20;;;;;;5019405;28;20204;-78
2021/01/27 11:38:34;;;;;;;4.65;3.15;;;3.40;82.80;;;;;;5018988;28;20246;-78
2021/01/27 11:41:01;;;;;;;3.90;3.50;;;3.40;82.80;;;;;;5018097;28;20236;-78
2021/01/27 11:43:27;;;;;;;5.38;4.38;;;3.40;82.00;;;;;;5017042;28;20242;-78
2021/01/27 11:45:54;;;;;;;6.18;4.18;;;3.30;81.20;;;;;;5016244;28;20270;-77
2021/01/27 11:48:21;;;;;;;4.72;3.67;;;3.30;82.00;;;;;;5014908;28;20286;-78
2021/01/27 11:50:47;;;;;;;7.13;3.60;;;3.40;81.70;;;;;;5017591;28;20220;-78
2021/01/27 11:53:15;;;;;;;6.30;4.20;;;3.40;81.30;;;;;;5017464;28;20319;-77
2021/01/27 11:55:41;;;;;;;5.43;4.10;;;3.40;80.70;;;;;;5018615;28;20605;-77
2021/01/27 11:58:08;;;;;;;4.50;3.80;;;3.30;80.50;;;;;;5021661;28;20410;-78
2021/01/27 12:00:34;;;;;;;5.85;3.95;;;3.30;80.40;;;;;;5021813;28;20319;-75
2021/01/27 12:03:02;;;;;;;8.45;3.65;;;3.30;81.50;;;;;;5035480;28;20195;-76
2021/01/27 12:05:28;;;;;;;5.47;4.07;;;3.30;82.10;;;;;;5031298;28;20211;-77
2021/01/27 12:07:57;;;;;;;4.82;4.00;;;3.20;82.20;;;;;;5024988;28;20208;-79
2021/01/27 12:10:25;;;;;;;10.55;3.90;;;3.20;83.30;;;;;;5027288;28;20215;-80
2021/01/27 12:12:51;;;;;;;9.27;4.18;;;3.20;82.90;;;;;;5020661;28;20200;-77
2021/01/27 12:15:18;;;;;;;4.68;3.60;;;3.20;83.30;;;;;;5036579;28;20192;-78
2021/01/27 12:17:44;;;;;;;5.03;4.00;;;3.30;83.50;;;;;;5032145;28;20367;-78
2021/01/27 12:20:12;;;;;;;4.57;3.22;;;3.20;82.90;;;;;;5035955;28;20219;-78
2021/01/27 12:22:39;;;;;;;4.05;3.65;;;3.10;84.00;;;;;;5033636;28;20576;-80
2021/01/27 12:25:06;;;;;;;6.53;3.75;;;3.30;85.30;;;;;;5031074;28;20243;-79
2021/01/27 12:27:34;;;;;;;6.28;3.58;;;3.50;85.80;;;;;;5032456;28;20226;-79
2021/01/27 12:30:00;;;;;;;4.00;3.28;;;3.40;84.60;;;;;;5035923;28;20195;-79
2021/01/27 12:32:27;;;;;;;3.30;3.00;;;3.50;84.30;;;;;;5036127;28;20179;-77
2021/01/27 12:34:53;;;;;;;5.57;3.63;;;3.50;83.10;;;;;;5034468;28;20247;-78
2021/01/27 12:37:19;;;;;;;2.72;2.42;;;3.50;82.60;;;;;;5034354;28;20211;-78
2021/01/27 12:39:46;;;;;;;3.15;2.58;;;3.50;83.10;;;;;;5031127;28;20211;-77
2021/01/27 12:42:12;;;;;;;4.88;2.50;;;3.40;82.50;;;;;;5027025;28;20196;-80
2021/01/27 12:44:40;;;;;;;2.75;2.25;;;3.40;84.10;;;;;;5011875;28;20237;-77
2021/01/27 12:47:07;;;;;;;2.20;2.00;;;3.40;83.50;;;;;;5006645;28;20239;-79
2021/01/27 12:49:33;;;;;;;2.97;2.00;;;3.50;82.70;;;;;;5028468;28;20257;-81
2021/01/27 12:52:00;;;;;;;2.30;2.15;;;3.60;82.40;;;;;;5023414;28;20246;-77
2021/01/27 12:54:26;;;;;;;2.47;2.08;;;3.50;80.10;;;;;;5021364;28;20211;-79
2021/01/27 12:56:53;;;;;;;1.73;1.60;;;3.50;80.20;;;;;;5020499;28;20215;-81
2021/01/27 12:59:19;;;;;;;2.08;1.88;;;3.50;81.70;;;;;;5024344;28;20227;-80
2021/01/27 13:01:47;;;;;;;3.78;1.80;;;3.50;81.30;;;;;;5024174;28;20290;-80
2021/01/27 13:04:14;;;;;;;5.07;2.17;;;3.50;81.40;;;;;;5028009;28;20224;-79
2021/01/27 13:06:41;;;;;;;4.25;2.67;;;3.40;81.90;;;;;;5026432;28;20664;-80
2021/01/27 13:09:07;;;;;;;2.67;1.98;;;3.40;82.00;;;;;;5025784;28;20277;-79
2021/01/27 13:11:33;;;;;;;2.67;2.20;;;3.30;82.20;;;;;;5026911;28;20206;-80
2021/01/27 13:14:00;;;;;;;4.35;2.00;;;3.40;83.00;;;;;;5027648;28;20711;-80
2021/01/27 13:16:29;;;;;;;2.65;2.45;;;3.40;83.20;;;;;;5038955;28;20188;-77
2021/01/27 13:18:56;;;;;;;1.73;1.63;;;3.30;82.80;;;;;;5039304;28;20188;-77
2021/01/27 13:21:25;;;;;;;3.78;2.58;;;3.20;83.30;;;;;;5051066;28;20222;-78
2021/01/27 13:23:52;;;;;;;3.05;2.42;;;3.00;83.90;;;;;;5054566;28;20216;-78
2021/01/27 13:26:21;;;;;;;3.92;2.25;;;3.10;84.70;;;;;;5034624;28;20212;-79
2021/01/27 13:28:48;;;;;;;2.53;2.33;;;3.20;84.60;;;;;;5032227;28;20352;-78
2021/01/27 13:31:15;;;;;;;2.22;1.60;;;3.20;84.00;;;;;;5035295;28;20212;-78
2021/01/27 13:33:41;;;;;;;2.47;1.65;;;3.30;83.10;;;;;;5037392;28;20267;-78
2021/01/27 13:36:08;;;;;;;1.83;1.67;;;3.20;82.60;;;;;;5039336;28;20192;-78
2021/01/27 13:38:36;;;;;;;1.80;1.67;;;3.20;83.20;;;;;;5037809;28;20200;-77
2021/01/27 13:41:03;;;;;;;2.05;1.80;;;3.20;83.30;;;;;;5032914;28;20767;-78
2021/01/27 13:43:29;;;;;;;1.83;1.73;;;3.20;83.20;;;;;;5024130;28;20263;-79
2021/01/27 13:45:56;;;;;;;3.50;1.65;;;3.20;83.00;;;;;;5022873;28;20200;-79
2021/01/27 13:48:22;;;;;;;3.90;1.35;;;3.20;83.20;;;;;;5024153;28;20208;-77
2021/01/27 13:50:49;;;;;;;2.53;1.90;;;3.20;83.60;;;;;;5025193;28;20200;-78
2021/01/27 13:53:17;;;;;;;2.63;1.30;;;3.20;84.80;;;;;;5033570;28;20227;-79
2021/01/27 13:55:45;;;;;;;2.47;1.90;;;3.20;84.60;;;;;;5045194;28;20207;-78
2021/01/27 13:58:15;;;;;;;5.80;1.80;;;3.30;84.10;;;;;;5044702;28;20214;-79
2021/01/27 14:00:41;;;;;;;2.15;1.80;;;3.10;83.90;;;;;;5044597;28;20250;-78
2021/01/27 14:03:08;;;;;;;5.38;2.15;;;3.10;84.10;;;;;;5045088;28;20220;-80
2021/01/27 14:05:36;;;;;;;2.20;1.90;;;3.10;85.10;;;;;;5026268;28;20620;-77
2021/01/27 14:08:03;;;;;;;3.53;2.20;;;3.00;85.90;;;;;;5025997;28;20207;-80
2021/01/27 14:10:32;;;;;;;3.55;1.63;;;3.00;85.90;;;;;;5026433;28;20204;-78
2021/01/27 14:13:01;;;;;;;1.77;1.50;;;3.00;85.80;;;;;;5030086;28;20200;-76
2021/01/27 14:15:30;;;;;;;2.72;2.30;;;3.00;85.10;;;;;;5044541;28;20230;-79
2021/01/27 14:17:57;;;;;;;2.47;1.80;;;3.00;85.10;;;;;;5047027;28;20267;-77
2021/01/27 14:20:26;;;;;;;3.60;2.15;;;3.00;85.10;;;;;;5043782;28;20224;-78
2021/01/27 14:22:53;;;;;;;2.88;2.00;;;3.00;86.00;;;;;;5058014;28;20199;-77
2021/01/27 14:25:21;;;;;;;2.30;1.80;;;3.00;86.30;;;;;;5058530;28;20183;-77
2021/01/27 14:27:51;;;;;;;2.42;1.92;;;3.00;86.90;;;;;;5019039;28;20185;-79
2021/01/27 14:30:19;;;;;;;2.47;1.95;;;3.00;87.00;;;;;;5017653;28;20196;-78
2021/01/27 14:32:45;;;;;;;2.28;1.85;;;3.00;86.40;;;;;;5016580;28;20343;-79
2021/01/27 14:35:13;;;;;;;1.98;1.73;;;3.00;85.70;;;;;;5005232;28;20232;-77
2021/01/27 14:37:39;;;;;;;2.63;2.20;;;3.00;85.30;;;;;;5012365;28;20212;-78
2021/01/27 14:40:07;;;;;;;2.95;2.10;;;3.00;85.70;;;;;;5017834;28;20232;-79
2021/01/27 14:42:34;;;;;;;2.45;1.77;;;3.00;86.30;;;;;;5018531;28;20197;-78
2021/01/27 14:45:01;;;;;;;1.80;1.70;;;3.00;86.50;;;;;;5022805;28;20224;-78
2021/01/27 14:47:28;;;;;;;2.15;1.85;;;2.90;87.30;;;;;;5033239;28;20191;-79
2021/01/27 14:49:55;;;;;;;4.43;2.30;;;2.80;87.80;;;;;;5033756;28;20734;-77
2021/01/27 14:52:22;;;;;;;3.10;2.55;;;2.80;87.80;;;;;;5020606;28;20619;-78
2021/01/27 14:54:49;;;;;;;3.95;2.28;;;2.80;88.30;;;;;;5021859;28;20235;-77
2021/01/27 14:57:16;;;;;;;3.80;2.58;;;2.80;88.60;;;;;;5020332;28;20231;-78
2021/01/27 14:59:42;;;;;;;2.97;2.60;;;2.80;89.00;;;;;;5020703;28;20311;-76
2021/01/27 15:02:09;;;;;;;3.78;2.95;;;2.80;89.50;;;;;;5021082;28;20291;-79
2021/01/27 15:04:36;;;;;;;3.22;2.85;;;2.80;89.90;;;;;;5026826;28;20288;-78
2021/01/27 15:07:03;;;;;;;4.13;2.67;;;2.80;90.10;;;;;;5056144;28;20222;-77
2021/01/27 15:09:29;;;;;;;4.35;2.35;;;2.80;90.40;;;;;;5054466;28;20289;-78
2021/01/27 15:11:55;;;;;;;5.10;2.75;;;2.80;90.30;;;;;;5021826;28;20208;-78
2021/01/27 15:14:22;;;;;;;2.40;2.20;;;2.80;90.50;;;;;;5019950;28;20232;-79
2021/01/27 15:16:48;;;;;;;4.18;3.10;;;2.80;90.70;;;;;;5028108;28;20200;-79
2021/01/27 15:19:16;;;;;;;4.07;3.17;;;2.80;90.80;;;;;;5036026;28;20223;-78
2021/01/27 15:21:42;;;;;;;3.15;2.85;;;2.80;90.80;;;;;;5036710;28;20212;-79
2021/01/27 15:24:09;;;;;;;3.28;2.97;;;2.80;90.70;;;;;;5034555;28;20294;-77
2021/01/27 15:26:36;;;;;;;5.45;2.85;;;2.80;90.90;;;;;;5021861;28;20655;-79
2021/01/27 15:29:02;;;;;;;3.53;2.75;;;2.80;91.30;;;;;;5018337;28;20285;-78
2021/01/27 15:31:29;;;;;;;3.67;3.13;;;2.80;91.80;;;;;;5018896;28;20299;-78
2021/01/27 15:33:55;;;;;;;3.42;2.80;;;2.80;92.50;;;;;;5017934;28;20243;-78
2021/01/27 15:36:23;;;;;;;3.22;2.92;;;2.80;92.60;;;;;;5020442;28;20235;-79
2021/01/27 15:38:50;;;;;;;4.45;2.80;;;2.70;92.80;;;;;;5020546;28;20247;-78
2021/01/27 15:41:17;;;;;;;4.10;3.10;;;2.70;93.40;;;;;;5020496;28;20775;-78
2021/01/27 15:43:43;;;;;;;3.67;3.22;;;2.80;93.90;;;;;;5021898;28;20235;-80
2021/01/27 15:46:10;;;;;;;3.40;2.80;;;2.70;94.20;;;;;;5020179;28;20208;-79
2021/01/27 15:48:36;;;;;;;5.40;4.45;;;2.70;94.60;;;;;;5022359;28;20203;-79
2021/01/27 15:51:03;;;;;;;4.15;3.70;;;2.70;94.80;;;;;;5034921;28;20219;-77
2021/01/27 15:53:31;;;;;;;4.93;4.10;;;2.70;95.10;;;;;;5030924;28;20247;-79
2021/01/27 15:55:57;;;;;;;6.20;4.25;;;2.70;95.20;;;;;;5021498;28;20232;-79
2021/01/27 15:58:24;;;;;;;4.45;3.92;;;2.70;95.40;;;;;;5025407;28;20219;-82
2021/01/27 16:00:51;;;;;;;3.30;3.00;;;2.80;95.70;;;;;;5024763;28;20286;-80
2021/01/27 16:03:17;;;;;;;5.05;3.42;;;2.80;96.00;;;;;;5021773;28;20719;-80
2021/01/27 16:05:44;;;;;;;3.90;3.50;;;2.80;96.00;;;;;;5024564;28;20216;-80
2021/01/27 16:08:10;;;;;;;5.18;4.68;;;2.80;96.00;;;;;;5027535;28;20259;-80
2021/01/27 16:10:38;;;;;;;5.53;3.97;;;2.80;96.10;;;;;;5032411;28;20204;-80
2021/01/27 16:13:10;;;;;;;6.68;4.40;;;2.80;96.10;;;;;;5032335;28;20230;-81
2021/01/27 16:15:38;;;;;;;4.63;4.20;;;2.80;96.10;;;;;;5031146;28;20232;-80
2021/01/27 16:18:07;;;;;;;4.63;4.18;;;2.80;96.10;;;;;;5025904;28;20297;-81
2021/01/27 16:20:34;;;;;;;5.32;4.13;;;2.80;96.10;;;;;;5026638;28;20231;-81
2021/01/27 16:23:01;;;;;;;4.40;4.00;;;2.80;96.10;;;;;;5027664;28;20260;-82
2021/01/27 16:25:29;;;;;;;6.30;4.30;;;2.80;96.40;;;;;;5027677;28;20207;-80
2021/01/27 16:27:57;;;;;;;4.88;4.35;;;2.80;96.70;;;;;;5026497;28;20571;-79
2021/01/27 16:30:27;;;;;;;5.82;4.05;;;2.80;97.10;;;;;;5026599;28;20216;-79
2021/01/27 16:32:54;;;;;;;4.40;4.00;;;2.80;97.40;;;;;;5026256;28;20248;-80
2021/01/27 16:35:28;;;;;;;9.20;4.15;;;2.80;97.50;;;;;;5029837;28;20227;-81
2021/01/27 16:37:54;;;;;;;4.57;4.13;;;2.70;97.70;;;;;;5031118;28;20250;-80